createdAt,value
2022-11-05T00:00:15.703Z,90.09
2022-11-05T00:03:01.453Z,90.96
2022-11-05T00:05:47.072Z,90.74
2022-11-05T00:08:32.617Z,91.05
2022-11-05T00:10:59.740Z,91.13
2022-11-05T00:13:45.433Z,91.70
2022-11-05T00:16:30.911Z,92.25
2022-11-05T00:19:06.853Z,92.64
2022-11-05T00:21:54.029Z,92.37
2022-11-05T00:24:40.152Z,92.47
2022-11-05T00:27:08.145Z,92.37
2022-11-05T00:29:36.002Z,92.28
2022-11-05T00:32:03.099Z,92.23
2022-11-05T00:34:30.219Z,92.50
2022-11-05T00:36:57.130Z,92.86
2022-11-05T00:39:24.253Z,92.94
2022-11-05T00:42:09.863Z,93.11
2022-11-05T00:44:55.418Z,93.13
2022-11-05T00:47:40.840Z,93.74
2022-11-05T00:50:08.154Z,93.39
2022-11-05T00:52:53.709Z,93.90
2022-11-05T00:55:20.989Z,93.98
2022-11-05T00:57:47.924Z,93.85
2022-11-05T01:00:15.307Z,93.47
2022-11-05T01:02:42.441Z,93.28
2022-11-05T01:05:09.588Z,93.79
2022-11-05T01:07:36.586Z,94.29
2022-11-05T01:10:03.948Z,93.65
2022-11-05T01:12:32.187Z,93.59
2022-11-05T01:14:59.779Z,94.13
2022-11-05T01:17:26.679Z,94.30
2022-11-05T01:19:53.617Z,94.76
2022-11-05T01:22:20.495Z,95.18
2022-11-05T01:24:47.485Z,94.92
2022-11-05T01:27:14.506Z,94.90
2022-11-05T01:29:42.340Z,94.48
2022-11-05T01:32:09.971Z,94.67
2022-11-05T01:34:37.289Z,95.29
2022-11-05T01:37:04.130Z,95.63
2022-11-05T01:39:31.513Z,95.46
2022-11-05T01:41:58.905Z,95.48
2022-11-05T01:45:01.871Z,95.56
2022-11-05T01:47:47.709Z,95.95
2022-11-05T01:50:44.770Z,96.41
2022-11-05T01:53:30.194Z,96.26
2022-11-05T01:56:03.236Z,96.44
2022-11-05T01:58:36.778Z,96.43
2022-11-05T02:01:04.030Z,96.28
2022-11-05T02:03:31.618Z,96.35
2022-11-05T02:06:00.901Z,96.30
2022-11-05T02:08:42.652Z,96.38
2022-11-05T02:11:09.759Z,96.45
2022-11-05T02:13:36.987Z,96.40
2022-11-05T02:16:23.366Z,96.72
2022-11-05T02:19:23.322Z,96.64
2022-11-05T02:22:17.906Z,97.05
2022-11-05T02:24:44.737Z,97.00
2022-11-05T02:27:33.135Z,96.88
2022-11-05T02:30:05.959Z,97.10
2022-11-05T02:32:51.776Z,97.09
2022-11-05T02:35:30.895Z,96.75
2022-11-05T02:38:09.043Z,96.93
2022-11-05T02:40:44.849Z,97.05
2022-11-05T02:43:16.543Z,97.02
2022-11-05T02:45:51.040Z,96.99
2022-11-05T02:48:18.106Z,97.36
2022-11-05T02:51:15.573Z,97.29
2022-11-05T02:53:49.331Z,97.37
2022-11-05T02:56:39.657Z,96.92
2022-11-05T02:59:06.848Z,96.59
2022-11-05T03:01:36.030Z,96.98
2022-11-05T03:04:06.927Z,96.83
2022-11-05T03:06:33.789Z,97.12
2022-11-05T03:09:26.444Z,97.19
2022-11-05T03:12:23.988Z,97.32
2022-11-05T03:15:09.142Z,97.16
2022-11-05T03:17:52.968Z,97.27
2022-11-05T03:20:25.238Z,97.73
2022-11-05T03:22:58.620Z,97.86
2022-11-05T03:25:29.332Z,98.12
2022-11-05T03:28:05.562Z,98.69
2022-11-05T03:30:35.649Z,98.51
2022-11-05T03:33:16.222Z,98.27
2022-11-05T03:35:48.099Z,97.95
2022-11-05T03:38:22.030Z,97.63
2022-11-05T03:40:54.457Z,97.47
2022-11-05T03:43:25.012Z,97.60
2022-11-05T03:46:24.671Z,98.13
2022-11-05T03:48:55.646Z,98.63
2022-11-05T03:51:41.984Z,97.94
2022-11-05T03:54:10.824Z,98.68
2022-11-05T03:56:52.395Z,98.86
2022-11-05T03:59:20.719Z,98.76
2022-11-05T04:01:48.447Z,98.72
2022-11-05T04:04:15.806Z,99.09
2022-11-05T04:07:01.149Z,99.00
2022-11-05T04:09:46.878Z,98.98
2022-11-05T04:12:32.248Z,99.38
2022-11-05T04:14:59.365Z,99.65
2022-11-05T04:17:26.410Z,99.49
2022-11-05T04:20:25.584Z,99.34
2022-11-05T04:23:31.070Z,99.00
2022-11-05T04:25:58.014Z,99.48
2022-11-05T04:28:44.822Z,99.78
2022-11-05T04:31:12.114Z,99.94
2022-11-05T04:33:38.904Z,100.00
2022-11-05T04:36:06.293Z,100.00
2022-11-05T04:38:33.146Z,100.00
2022-11-05T04:41:14.328Z,99.87
2022-11-05T04:43:41.461Z,100.00
2022-11-05T04:46:08.606Z,100.00
2022-11-05T04:48:35.777Z,99.98
2022-11-05T04:51:02.839Z,100.00
2022-11-05T04:53:29.830Z,100.00
2022-11-05T04:56:12.862Z,100.00
2022-11-05T04:58:41.693Z,100.00
2022-11-05T05:01:14.501Z,100.00
2022-11-05T05:03:41.798Z,100.00
2022-11-05T05:06:10.340Z,100.00
2022-11-05T05:08:38.536Z,100.00
2022-11-05T05:11:09.350Z,100.00
2022-11-05T05:13:36.833Z,100.00
2022-11-05T05:16:09.179Z,100.00
2022-11-05T05:18:36.421Z,100.00
2022-11-05T05:21:21.736Z,99.81
2022-11-05T05:23:48.948Z,99.55
2022-11-05T05:26:16.852Z,100.00
2022-11-05T05:28:44.154Z,100.00
2022-11-05T05:31:11.592Z,100.00
2022-11-05T05:33:39.022Z,100.00
2022-11-05T05:36:11.055Z,100.00
2022-11-05T05:38:39.077Z,100.00
2022-11-05T05:41:06.278Z,100.00
2022-11-05T05:43:34.439Z,100.00
2022-11-05T05:46:06.562Z,100.00
2022-11-05T05:48:34.396Z,100.00
2022-11-05T05:51:02.671Z,100.00
2022-11-05T05:53:30.766Z,100.00
2022-11-05T05:55:58.995Z,100.00
2022-11-05T05:58:30.746Z,100.00
2022-11-05T06:01:05.148Z,100.00
2022-11-05T06:03:32.386Z,100.00
2022-11-05T06:06:10.777Z,100.00
2022-11-05T06:08:37.709Z,100.00
2022-11-05T06:11:05.596Z,100.00
2022-11-05T06:13:33.608Z,100.00
2022-11-05T06:16:07.052Z,100.00
2022-11-05T06:18:34.512Z,100.00
2022-11-05T06:21:03.653Z,100.00
2022-11-05T06:23:35.578Z,100.00
2022-11-05T06:26:10.684Z,100.00
2022-11-05T06:28:38.188Z,100.00
2022-11-05T06:31:05.914Z,100.00
2022-11-05T06:33:32.911Z,100.00
2022-11-05T06:36:01.804Z,100.00
2022-11-05T06:38:31.532Z,100.00
2022-11-05T06:40:59.534Z,100.00
2022-11-05T06:43:28.637Z,100.00
2022-11-05T06:45:56.644Z,100.00
2022-11-05T06:48:25.569Z,100.00
2022-11-05T06:50:52.806Z,100.00
2022-11-05T06:53:20.087Z,100.00
2022-11-05T06:55:50.437Z,100.00
2022-11-05T06:58:17.473Z,100.00
2022-11-05T07:00:45.153Z,100.00
2022-11-05T07:03:13.113Z,100.00
2022-11-05T07:05:43.836Z,100.00
2022-11-05T07:08:10.998Z,100.00
2022-11-05T07:10:38.229Z,100.00
2022-11-05T07:13:08.407Z,100.00
2022-11-05T07:15:38.852Z,100.00
2022-11-05T07:18:07.588Z,100.00
2022-11-05T07:20:35.253Z,100.00
2022-11-05T07:23:07.170Z,100.00
2022-11-05T07:25:34.771Z,100.00
2022-11-05T07:28:02.726Z,100.00
2022-11-05T07:30:30.692Z,100.00
2022-11-05T07:32:57.870Z,100.00
2022-11-05T07:35:25.734Z,100.00
2022-11-05T07:37:54.168Z,100.00
2022-11-05T07:40:22.432Z,100.00
2022-11-05T07:42:52.236Z,100.00
2022-11-05T07:45:19.738Z,100.00
2022-11-05T07:47:55.586Z,100.00
2022-11-05T07:50:25.192Z,100.00
2022-11-05T07:52:52.763Z,100.00
2022-11-05T07:55:21.068Z,100.00
2022-11-05T07:57:50.343Z,100.00
2022-11-05T08:00:22.431Z,100.00
2022-11-05T08:03:07.166Z,100.00
2022-11-05T08:05:39.429Z,100.00
2022-11-05T08:08:14.153Z,100.00
2022-11-05T08:10:41.590Z,100.00
2022-11-05T08:13:09.973Z,100.00
2022-11-05T08:15:39.421Z,100.00
2022-11-05T08:18:17.680Z,99.76
2022-11-05T08:20:45.829Z,98.95
2022-11-05T08:23:13.062Z,98.12
2022-11-05T08:25:41.471Z,97.47
2022-11-05T08:28:12.933Z,96.65
2022-11-05T08:30:40.652Z,95.78
2022-11-05T08:33:11.211Z,95.23
2022-11-05T08:35:39.338Z,94.84
2022-11-05T08:38:36.049Z,94.29
2022-11-05T08:41:03.201Z,93.67
2022-11-05T08:43:30.229Z,92.50
2022-11-05T08:45:57.440Z,92.11
2022-11-05T08:48:24.543Z,91.61
2022-11-05T08:50:51.778Z,91.29
2022-11-05T08:53:19.036Z,89.95
2022-11-05T08:55:50.187Z,88.89
2022-11-05T08:58:17.987Z,87.86
2022-11-05T09:00:47.851Z,87.68
2022-11-05T09:03:16.017Z,87.45
2022-11-05T09:05:43.696Z,86.69
2022-11-05T09:08:13.780Z,86.37
2022-11-05T09:10:42.114Z,85.48
2022-11-05T09:13:16.661Z,85.08
2022-11-05T09:15:45.820Z,84.94
2022-11-05T09:18:14.465Z,84.41
2022-11-05T09:20:42.579Z,83.53
2022-11-05T09:23:11.851Z,82.96
2022-11-05T09:25:39.556Z,82.28
2022-11-05T09:28:18.847Z,82.07
2022-11-05T09:30:50.806Z,81.07
2022-11-05T09:33:20.527Z,79.68
2022-11-05T09:35:47.940Z,79.57
2022-11-05T09:38:15.247Z,79.12
2022-11-05T09:41:13.270Z,79.28
2022-11-05T09:43:52.045Z,78.85
2022-11-05T09:46:33.816Z,78.28
2022-11-05T09:49:06.198Z,77.22
2022-11-05T09:51:36.162Z,76.06
2022-11-05T09:54:04.632Z,75.58
2022-11-05T09:56:37.069Z,75.66
2022-11-05T09:59:07.521Z,75.21
2022-11-05T10:01:38.033Z,74.89
2022-11-05T10:04:16.431Z,74.60
2022-11-05T10:06:54.735Z,74.10
2022-11-05T10:09:31.623Z,72.37
2022-11-05T10:12:07.830Z,71.93
2022-11-05T10:14:40.949Z,71.48
2022-11-05T10:17:14.983Z,71.36
2022-11-05T10:19:50.046Z,71.09
2022-11-05T10:22:19.441Z,70.02
2022-11-05T10:24:49.581Z,70.31
2022-11-05T10:30:15.694Z,69.40
2022-11-05T10:32:44.892Z,68.25
2022-11-05T10:35:22.803Z,67.89
2022-11-05T10:37:51.436Z,67.00
2022-11-05T10:40:36.451Z,67.57
2022-11-05T10:43:06.668Z,67.63
2022-11-05T10:45:52.587Z,67.13
2022-11-05T10:48:44.070Z,66.35
2022-11-05T10:51:11.735Z,65.91
2022-11-05T10:53:39.914Z,65.57
2022-11-05T10:56:37.975Z,65.18
2022-11-05T10:59:18.952Z,64.36
2022-11-05T11:01:47.266Z,64.48
2022-11-05T11:04:24.163Z,64.06
2022-11-05T11:06:56.425Z,64.14
2022-11-05T11:09:30.724Z,63.48
2022-11-05T11:12:20.656Z,63.32
2022-11-05T11:15:14.977Z,63.71
2022-11-05T11:17:42.828Z,63.86
2022-11-05T11:20:30.105Z,63.04
2022-11-05T11:23:05.260Z,62.43
2022-11-05T11:26:00.748Z,62.12
2022-11-05T11:28:33.847Z,61.56
2022-11-05T11:31:13.694Z,60.84
2022-11-05T11:33:44.118Z,60.24
2022-11-05T11:36:13.034Z,60.24
2022-11-05T11:38:41.382Z,59.62
2022-11-05T11:41:12.145Z,57.95
2022-11-05T11:43:42.338Z,57.23
2022-11-05T11:46:20.125Z,56.92
2022-11-05T11:49:03.892Z,56.58
2022-11-05T11:51:49.882Z,56.29
2022-11-05T11:54:28.620Z,55.27
2022-11-05T11:56:58.628Z,55.23
2022-11-05T11:59:53.991Z,54.21
2022-11-05T12:02:43.091Z,54.08
2022-11-05T12:05:28.966Z,53.40
2022-11-05T12:08:04.964Z,53.39
2022-11-05T12:10:48.353Z,53.53
2022-11-05T12:13:54.044Z,52.01
2022-11-05T12:16:45.745Z,51.97
2022-11-05T12:19:22.082Z,51.58
2022-11-05T12:22:04.758Z,51.84
2022-11-05T12:24:40.955Z,50.90
2022-11-05T12:27:38.245Z,48.97
2022-11-05T12:30:12.443Z,47.99
2022-11-05T12:33:10.204Z,48.57
2022-11-05T12:35:54.815Z,45.82
2022-11-05T12:38:42.967Z,44.12
2022-11-05T12:41:21.862Z,42.22
2022-11-05T12:44:13.738Z,40.26
2022-11-05T12:47:07.504Z,36.65
2022-11-05T12:49:51.997Z,36.62
2022-11-05T12:52:43.663Z,35.40
2022-11-05T12:55:24.196Z,34.28
2022-11-05T12:58:00.271Z,33.50
2022-11-05T13:00:29.530Z,32.77
2022-11-05T13:03:12.193Z,30.65
2022-11-05T13:06:05.426Z,30.83
2022-11-05T13:08:49.814Z,30.89
2022-11-05T13:11:26.412Z,30.60
2022-11-05T13:14:27.053Z,30.85
2022-11-05T13:17:05.483Z,31.51
2022-11-05T13:19:38.710Z,30.77
2022-11-05T13:22:17.802Z,31.18
2022-11-05T13:24:53.271Z,31.48
2022-11-05T13:27:41.040Z,32.14
2022-11-05T13:30:22.759Z,32.29
2022-11-05T13:32:53.336Z,32.46
2022-11-05T13:35:27.203Z,33.64
2022-11-05T13:38:20.382Z,33.74
2022-11-05T13:41:14.903Z,33.60
2022-11-05T13:43:44.819Z,34.49
2022-11-05T13:46:22.764Z,34.62
2022-11-05T13:49:18.864Z,35.00
2022-11-05T13:51:50.069Z,35.54
2022-11-05T13:54:26.083Z,35.84
2022-11-05T13:57:17.978Z,36.13
2022-11-05T14:00:24.622Z,36.96
2022-11-05T14:02:58.043Z,37.60
2022-11-05T14:05:36.683Z,38.18
2022-11-05T14:08:21.183Z,38.78
2022-11-05T14:11:15.696Z,39.56
2022-11-05T14:13:45.205Z,39.96
2022-11-05T14:16:40.835Z,40.56
2022-11-05T14:19:20.277Z,40.96
2022-11-05T14:21:57.652Z,41.33
2022-11-05T14:24:40.567Z,41.81
2022-11-05T14:27:08.646Z,42.46
2022-11-05T14:29:45.114Z,42.66
2022-11-05T14:32:20.942Z,43.03
2022-11-05T14:35:07.868Z,43.47
2022-11-05T14:38:00.292Z,43.98
2022-11-05T14:40:42.402Z,44.02
2022-11-05T14:43:22.213Z,44.59
2022-11-05T14:46:02.929Z,44.92
2022-11-05T14:48:46.907Z,45.37
2022-11-05T14:51:38.907Z,46.21
2022-11-05T14:54:27.206Z,46.47
2022-11-05T14:57:00.043Z,46.94
2022-11-05T14:59:31.823Z,47.47
2022-11-05T15:02:17.437Z,47.92
2022-11-05T15:04:48.333Z,48.54
2022-11-05T15:07:24.511Z,48.91
2022-11-05T15:09:54.528Z,49.04
2022-11-05T15:12:40.289Z,49.58
2022-11-05T15:15:21.404Z,49.77
2022-11-05T15:17:58.383Z,50.15
2022-11-05T15:20:39.628Z,50.45
2022-11-05T15:23:09.777Z,50.72
2022-11-05T15:25:58.568Z,50.86
2022-11-05T15:28:35.634Z,51.38
2022-11-05T15:31:31.229Z,51.39
2022-11-05T15:34:17.088Z,51.56
2022-11-05T15:36:48.494Z,51.87
2022-11-05T15:39:41.540Z,52.44
2022-11-05T15:42:25.474Z,52.97
2022-11-05T15:44:55.163Z,53.62
2022-11-05T15:47:28.586Z,53.79
2022-11-05T15:50:02.109Z,54.23
2022-11-05T15:52:42.446Z,54.68
2022-11-05T15:55:12.251Z,54.84
2022-11-05T15:57:50.448Z,55.16
2022-11-05T16:00:24.594Z,55.26
2022-11-05T16:03:24.388Z,55.45
2022-11-05T16:05:51.649Z,55.73
2022-11-05T16:08:21.861Z,56.09
2022-11-05T16:10:52.434Z,56.44
2022-11-05T16:13:33.222Z,56.34
2022-11-05T16:16:03.539Z,56.78
2022-11-05T16:18:36.069Z,56.88
2022-11-05T16:21:14.380Z,56.80
2022-11-05T16:23:43.126Z,57.55
2022-11-05T16:29:23.186Z,58.10
2022-11-05T16:31:52.976Z,58.06
2022-11-05T16:34:46.818Z,58.32
2022-11-05T16:37:16.262Z,58.81
2022-11-05T16:39:43.133Z,59.01
2022-11-05T16:42:23.022Z,59.56
2022-11-05T16:44:51.467Z,59.54
2022-11-05T16:47:19.851Z,60.06
2022-11-05T16:49:50.303Z,60.47
2022-11-05T16:52:17.453Z,60.84
2022-11-05T16:54:44.664Z,61.07
2022-11-05T16:57:37.951Z,61.04
2022-11-05T17:00:06.576Z,61.44
2022-11-05T17:02:33.671Z,61.65
2022-11-05T17:05:01.027Z,62.05
2022-11-05T17:07:28.100Z,62.15
2022-11-05T17:09:56.082Z,62.59
2022-11-05T17:12:23.075Z,63.03
2022-11-05T17:14:50.102Z,63.32
2022-11-05T17:17:17.081Z,63.31
2022-11-05T17:19:44.877Z,63.84
2022-11-05T17:22:11.775Z,64.20
2022-11-05T17:24:39.085Z,64.50
2022-11-05T17:27:06.267Z,64.92
2022-11-05T17:29:33.433Z,65.57
2022-11-05T17:32:00.618Z,65.43
2022-11-05T17:34:27.682Z,65.59
2022-11-05T17:36:54.939Z,65.97
2022-11-05T17:39:24.855Z,65.97
2022-11-05T17:41:55.188Z,66.37
2022-11-05T17:44:22.175Z,66.42
2022-11-05T17:46:49.899Z,66.78
2022-11-05T17:49:16.910Z,67.10
2022-11-05T17:51:43.920Z,67.24
2022-11-05T17:54:11.121Z,67.62
2022-11-05T17:56:44.479Z,67.79
2022-11-05T17:59:11.998Z,68.02
2022-11-05T18:01:43.458Z,67.78
2022-11-05T18:04:11.097Z,67.70
2022-11-05T18:06:41.671Z,67.81
2022-11-05T18:09:09.900Z,67.76
2022-11-05T18:11:37.967Z,67.86
2022-11-05T18:14:05.173Z,67.68
2022-11-05T18:16:32.956Z,67.83
2022-11-05T18:19:01.151Z,68.36
2022-11-05T18:21:28.362Z,68.46
2022-11-05T18:23:55.464Z,68.72
2022-11-05T18:26:22.352Z,68.58
2022-11-05T18:28:49.539Z,69.08
2022-11-05T18:31:20.613Z,69.27
2022-11-05T18:33:51.515Z,69.15
2022-11-05T18:36:24.522Z,69.33
2022-11-05T18:38:52.352Z,69.08
2022-11-05T18:41:20.695Z,68.87
2022-11-05T18:43:47.792Z,69.05
2022-11-05T18:46:43.161Z,69.20
2022-11-05T18:49:05.713Z,69.37
2022-11-05T18:51:33.083Z,69.56
2022-11-05T18:54:00.663Z,69.88
2022-11-05T18:56:27.683Z,70.14
2022-11-05T18:59:14.859Z,70.38
2022-11-05T19:01:42.566Z,70.78
2022-11-05T19:04:10.127Z,71.38
2022-11-05T19:06:37.443Z,71.70
2022-11-05T19:09:06.144Z,72.04
2022-11-05T19:11:33.690Z,72.01
2022-11-05T19:14:05.699Z,71.87
2022-11-05T19:16:33.134Z,71.94
2022-11-05T19:19:02.340Z,71.70
2022-11-05T19:21:30.282Z,71.86
2022-11-05T19:24:01.336Z,71.84
2022-11-05T19:26:29.349Z,72.50
2022-11-05T19:29:00.650Z,72.98
2022-11-05T19:31:31.332Z,73.33
2022-11-05T19:33:58.782Z,73.51
2022-11-05T19:36:26.278Z,73.05
2022-11-05T19:39:02.339Z,73.25
2022-11-05T19:41:29.400Z,73.30
2022-11-05T19:43:58.159Z,73.43
2022-11-05T19:46:25.450Z,73.80
2022-11-05T19:48:52.913Z,73.32
2022-11-05T19:51:24.438Z,73.79
2022-11-05T19:53:52.907Z,74.34
2022-11-05T19:56:22.825Z,74.17
2022-11-05T19:58:50.483Z,74.49
2022-11-05T20:01:18.667Z,74.48
2022-11-05T20:03:46.430Z,74.67
2022-11-05T20:06:16.301Z,74.86
2022-11-05T20:09:07.093Z,75.06
2022-11-05T20:11:32.215Z,75.10
2022-11-05T20:13:59.518Z,75.11
2022-11-05T20:16:30.066Z,75.65
2022-11-05T20:18:57.949Z,75.67
2022-11-05T20:21:25.068Z,75.96
2022-11-05T20:23:51.994Z,76.09
2022-11-05T20:26:18.925Z,76.02
2022-11-05T20:28:46.361Z,76.62
2022-11-05T20:31:16.626Z,76.69
2022-11-05T20:33:45.082Z,77.24
2022-11-05T20:36:20.870Z,77.31
2022-11-05T20:38:49.147Z,77.92
2022-11-05T20:41:19.585Z,78.01
2022-11-05T20:43:48.159Z,78.18
2022-11-05T20:46:17.314Z,78.73
2022-11-05T20:48:45.417Z,78.65
2022-11-05T20:51:15.635Z,78.59
2022-11-05T20:53:43.609Z,78.90
2022-11-05T20:56:23.403Z,78.97
2022-11-05T20:58:50.928Z,79.03
2022-11-05T21:01:19.204Z,79.45
2022-11-05T21:03:47.988Z,79.66
2022-11-05T21:06:15.798Z,79.49
2022-11-05T21:08:43.609Z,79.69
2022-11-05T21:11:11.344Z,80.15
2022-11-05T21:13:38.726Z,79.36
2022-11-05T21:16:07.725Z,80.25
2022-11-05T21:21:20.152Z,80.29
2022-11-05T21:23:47.559Z,80.46
2022-11-05T21:26:15.375Z,80.89
2022-11-05T21:28:42.832Z,80.60
2022-11-05T21:31:10.436Z,80.70
2022-11-05T21:33:38.140Z,81.19
2022-11-05T21:36:11.370Z,81.26
2022-11-05T21:38:38.770Z,81.10
2022-11-05T21:41:06.512Z,81.53
2022-11-05T21:43:33.744Z,81.46
2022-11-05T21:46:02.453Z,81.59
2022-11-05T21:48:30.409Z,81.65
2022-11-05T21:51:15.945Z,81.87
2022-11-05T21:54:01.597Z,82.07
2022-11-05T21:57:18.814Z,81.70
2022-11-05T21:59:48.915Z,81.88
2022-11-05T22:02:19.634Z,82.07
2022-11-05T22:04:49.522Z,82.18
2022-11-05T22:07:20.149Z,82.79
2022-11-05T22:09:47.337Z,82.88
2022-11-05T22:12:14.701Z,82.73
2022-11-05T22:14:42.264Z,83.21
2022-11-05T22:17:10.847Z,83.33
2022-11-05T22:19:38.004Z,83.34
2022-11-05T22:22:06.958Z,83.63
2022-11-05T22:24:35.070Z,83.08
2022-11-05T22:27:05.037Z,83.43
2022-11-05T22:29:32.605Z,83.44
2022-11-05T22:31:59.959Z,83.49
2022-11-05T22:34:26.987Z,83.20
2022-11-05T22:36:54.191Z,83.44
2022-11-05T22:39:21.768Z,83.34
2022-11-05T22:41:49.301Z,83.36
2022-11-05T22:44:17.385Z,83.25
2022-11-05T22:46:44.554Z,83.84
2022-11-05T22:49:12.293Z,84.05
2022-11-05T22:51:39.852Z,84.63
2022-11-05T22:54:07.910Z,84.40
2022-11-05T22:56:38.775Z,84.40
2022-11-05T22:59:07.112Z,84.93
2022-11-05T23:01:34.240Z,85.10
2022-11-05T23:04:01.494Z,85.76
2022-11-05T23:06:51.736Z,85.50
2022-11-05T23:09:43.738Z,85.46
2022-11-05T23:12:28.718Z,85.06
2022-11-05T23:14:58.043Z,85.44
2022-11-05T23:17:44.238Z,85.78
2022-11-05T23:20:33.321Z,86.04
2022-11-05T23:23:19.162Z,86.05
2022-11-05T23:25:46.335Z,86.17
2022-11-05T23:28:14.148Z,86.21
2022-11-05T23:31:03.241Z,86.43
2022-11-05T23:33:34.064Z,86.59
2022-11-05T23:36:19.858Z,86.47
2022-11-05T23:38:47.183Z,87.05
2022-11-05T23:41:32.561Z,87.50
2022-11-05T23:44:18.248Z,88.18
2022-11-05T23:47:03.465Z,88.36
2022-11-05T23:49:30.903Z,88.15
2022-11-05T23:51:57.776Z,87.73
2022-11-05T23:54:24.801Z,87.29
2022-11-05T23:56:51.671Z,88.46
2022-11-05T23:59:18.943Z,88.35
